createdAt,value
2023-12-20T00:02:13.498Z,101839.81
2023-12-20T00:08:00.803Z,101845.66
2023-12-20T00:13:52.128Z,101843.75
2023-12-20T00:19:39.473Z,101846.28
2023-12-20T00:25:29.516Z,101840.31
2023-12-20T00:31:19.238Z,101821.31
2023-12-20T00:37:06.043Z,101826.03
2023-12-20T00:42:59.315Z,101840.09
2023-12-20T00:48:47.141Z,101833.88
2023-12-20T00:54:43.168Z,101812.03
2023-12-20T01:07:46.285Z,101797.81
2023-12-20T01:13:33.487Z,101801.03
2023-12-20T01:19:20.493Z,101803.72
2023-12-20T01:25:08.931Z,101780.09
2023-12-20T01:30:55.915Z,101777.19
2023-12-20T01:36:44.093Z,101777.06
2023-12-20T01:42:33.940Z,101775.44
2023-12-20T01:48:25.963Z,101782.38
2023-12-20T01:54:18.065Z,101801.50
2023-12-20T02:00:05.641Z,101797.09
2023-12-20T02:05:56.620Z,101788.34
2023-12-20T02:11:44.572Z,101787.47
2023-12-20T02:17:44.812Z,101780.97
2023-12-20T02:23:31.976Z,101754.53
2023-12-20T02:29:18.766Z,101768.72
2023-12-20T02:35:08.747Z,101765.28
2023-12-20T02:40:58.432Z,101770.38
2023-12-20T02:46:55.630Z,101759.28
2023-12-20T02:52:47.904Z,101767.63
2023-12-20T02:58:35.016Z,101769.34
2023-12-20T03:04:25.368Z,101774.78
2023-12-20T03:10:19.947Z,101763.91
2023-12-20T03:16:14.765Z,101751.47
2023-12-20T03:22:02.321Z,101753.56
2023-12-20T03:27:54.012Z,101751.53
2023-12-20T03:33:40.944Z,101739.25
2023-12-20T03:39:27.877Z,101741.25
2023-12-20T03:45:14.860Z,101754.66
2023-12-20T03:51:01.709Z,101752.47
2023-12-20T03:56:48.682Z,101763.72
2023-12-20T04:03:18.970Z,101775.66
2023-12-20T04:09:05.976Z,101780.31
2023-12-20T04:15:00.169Z,101775.22
2023-12-20T04:20:50.689Z,101778.00
2023-12-20T04:26:37.707Z,101758.81
2023-12-20T04:32:30.485Z,101757.22
2023-12-20T04:38:24.793Z,101765.56
2023-12-20T04:44:32.062Z,101760.94
2023-12-20T04:50:19.310Z,101756.34
2023-12-20T04:56:06.813Z,101730.81
2023-12-20T05:01:55.594Z,101743.34
2023-12-20T05:07:42.873Z,101739.66
2023-12-20T05:13:38.138Z,101752.66
2023-12-20T05:19:32.389Z,101763.09
2023-12-20T05:25:20.181Z,101755.94
2023-12-20T05:31:08.231Z,101759.25
2023-12-20T05:36:59.506Z,101743.66
2023-12-20T05:42:47.946Z,101731.94
2023-12-20T05:48:35.012Z,101725.91
2023-12-20T05:54:23.257Z,101700.41
2023-12-20T06:00:13.183Z,101700.50
2023-12-20T06:06:10.855Z,101703.78
2023-12-20T06:12:02.916Z,101699.28
2023-12-20T06:17:50.217Z,101716.28
2023-12-20T06:23:37.344Z,101718.41
2023-12-20T06:29:36.108Z,101720.16
2023-12-20T06:35:24.251Z,101717.66
2023-12-20T06:41:15.119Z,101722.53
2023-12-20T06:47:03.418Z,101707.56
2023-12-20T06:52:50.556Z,101714.91
2023-12-20T06:58:39.044Z,101708.06
2023-12-20T07:04:30.183Z,101702.06
2023-12-20T07:10:28.508Z,101695.22
2023-12-20T07:16:15.411Z,101709.16
2023-12-20T07:22:05.144Z,101709.09
2023-12-20T07:27:52.521Z,101702.06
2023-12-20T07:34:02.951Z,101694.09
2023-12-20T07:39:50.310Z,101680.06
2023-12-20T07:45:37.303Z,101678.03
2023-12-20T07:51:24.090Z,101686.16
2023-12-20T07:57:13.473Z,101690.06
2023-12-20T08:03:00.822Z,101692.00
2023-12-20T08:08:55.381Z,101724.16
2023-12-20T08:14:48.580Z,101716.53
2023-12-20T08:20:40.581Z,101714.72
2023-12-20T08:26:28.360Z,101724.88
2023-12-20T08:32:15.812Z,101735.72
2023-12-20T08:38:02.661Z,101740.16
2023-12-20T08:43:49.509Z,101748.22
2023-12-20T08:49:36.774Z,101748.44
2023-12-20T08:55:24.157Z,101742.03
2023-12-20T09:01:34.959Z,101726.28
2023-12-20T09:07:34.476Z,101731.25
2023-12-20T09:13:21.990Z,101712.84
2023-12-20T09:19:11.454Z,101726.34
2023-12-20T09:24:58.417Z,101713.50
2023-12-20T09:30:47.588Z,101710.44
2023-12-20T09:36:38.499Z,101716.78
2023-12-20T09:42:43.590Z,101720.19
2023-12-20T09:48:32.509Z,101723.06
2023-12-20T09:55:00.469Z,101733.25
2023-12-20T10:00:58.935Z,101741.50
2023-12-20T10:07:10.335Z,101711.31
2023-12-20T10:13:12.226Z,101709.22
2023-12-20T10:19:02.587Z,101710.59
2023-12-20T10:24:49.551Z,101701.50
2023-12-20T10:30:37.206Z,101702.03
2023-12-20T10:36:27.921Z,101717.31
2023-12-20T10:42:17.133Z,101694.16
2023-12-20T10:48:05.307Z,101691.19
2023-12-20T10:53:54.232Z,101689.75
2023-12-20T10:59:42.505Z,101684.44
2023-12-20T11:05:43.270Z,101672.81
2023-12-20T11:11:57.930Z,101647.72
2023-12-20T11:17:56.384Z,101635.31
2023-12-20T11:23:43.922Z,101625.97
2023-12-20T11:29:38.603Z,101636.72
2023-12-20T11:35:28.551Z,101599.84
2023-12-20T11:41:17.068Z,101596.94
2023-12-20T11:47:06.591Z,101586.84
2023-12-20T11:52:54.885Z,101572.94
2023-12-20T11:58:42.574Z,101568.00
2023-12-20T12:04:29.613Z,101534.72
2023-12-20T12:10:16.589Z,101517.44
2023-12-20T12:16:03.787Z,101529.69
2023-12-20T12:21:51.775Z,101504.53
2023-12-20T12:27:40.646Z,101511.13
2023-12-20T12:33:28.032Z,101503.13
2023-12-20T12:39:19.133Z,101500.59
2023-12-20T12:45:06.706Z,101474.09
2023-12-20T12:51:00.467Z,101481.53
2023-12-20T12:56:49.261Z,101466.66
2023-12-20T13:02:43.074Z,101438.84
2023-12-20T13:08:31.223Z,101429.56
2023-12-20T13:14:21.953Z,101416.31
2023-12-20T13:20:10.129Z,101413.16
2023-12-20T13:25:57.117Z,101420.84
2023-12-20T13:31:54.601Z,101403.06
2023-12-20T13:37:41.644Z,101405.69
2023-12-20T13:43:28.695Z,101383.97
2023-12-20T13:49:15.920Z,101376.53
2023-12-20T13:55:09.592Z,101332.78
2023-12-20T14:00:56.798Z,101326.66
2023-12-20T14:06:43.847Z,101318.44
2023-12-20T14:12:30.928Z,101305.44
2023-12-20T14:18:18.369Z,101291.16
2023-12-20T14:24:05.752Z,101283.16
2023-12-20T14:29:56.132Z,101289.53
2023-12-20T14:35:45.761Z,101289.25
2023-12-20T14:41:38.215Z,101291.09
2023-12-20T14:47:26.267Z,101299.63
2023-12-20T14:53:23.750Z,101294.88
2023-12-20T14:59:13.268Z,101300.94
2023-12-20T15:05:02.338Z,101291.69
2023-12-20T15:10:49.281Z,101301.75
2023-12-20T15:16:36.959Z,101281.06
2023-12-20T15:22:25.023Z,101288.47
2023-12-20T15:28:12.361Z,101276.28
2023-12-20T15:34:03.914Z,101264.34
2023-12-20T15:40:06.438Z,101243.41
2023-12-20T15:45:53.747Z,101241.81
2023-12-20T15:51:40.890Z,101254.56
2023-12-20T15:57:29.425Z,101247.63
2023-12-20T16:03:24.858Z,101241.84
2023-12-20T16:15:32.191Z,101251.38
2023-12-20T16:21:19.481Z,101248.47
2023-12-20T16:27:06.526Z,101243.16
2023-12-20T16:32:53.620Z,101255.31
2023-12-20T16:38:40.602Z,101268.31
2023-12-20T16:44:39.871Z,101248.22
2023-12-20T16:50:38.557Z,101225.66
2023-12-20T16:56:29.723Z,101229.88
2023-12-20T17:02:21.015Z,101217.16
2023-12-20T17:08:08.760Z,101220.38
2023-12-20T17:13:55.786Z,101216.38
2023-12-20T17:19:48.158Z,101213.44
2023-12-20T17:25:43.005Z,101213.97
2023-12-20T17:31:30.088Z,101217.91
2023-12-20T17:37:19.817Z,101220.06
2023-12-20T17:43:07.034Z,101228.56
2023-12-20T17:48:54.342Z,101211.31
2023-12-20T17:54:46.582Z,101212.09
2023-12-20T18:00:38.535Z,101206.28
2023-12-20T18:06:25.835Z,101208.41
2023-12-20T18:12:12.852Z,101189.34
2023-12-20T18:17:59.836Z,101200.47
2023-12-20T18:23:49.254Z,101184.00
2023-12-20T18:29:37.242Z,101192.00
2023-12-20T18:35:24.306Z,101192.25
2023-12-20T18:41:15.781Z,101197.56
2023-12-20T18:47:06.811Z,101207.63
2023-12-20T18:52:54.293Z,101210.00
2023-12-20T18:58:41.301Z,101211.06
2023-12-20T19:04:28.245Z,101203.91
2023-12-20T19:10:15.345Z,101190.13
2023-12-20T19:16:02.783Z,101183.53
2023-12-20T19:21:49.841Z,101175.81
2023-12-20T19:27:37.196Z,101168.41
2023-12-20T19:33:24.232Z,101170.53
2023-12-20T19:39:11.311Z,101179.81
2023-12-20T19:44:58.366Z,101158.59
2023-12-20T19:50:45.451Z,101133.19
2023-12-20T19:56:32.440Z,101135.28
2023-12-20T20:02:23.529Z,101125.78
2023-12-20T20:08:12.804Z,101130.50
2023-12-20T20:14:00.998Z,101132.13
2023-12-20T20:19:48.213Z,101130.25
2023-12-20T20:25:35.293Z,101123.34
2023-12-20T20:31:22.229Z,101117.28
2023-12-20T20:37:09.171Z,101099.25
2023-12-20T20:42:56.369Z,101090.25
2023-12-20T20:48:50.416Z,101081.50
2023-12-20T20:54:38.992Z,101059.25
2023-12-20T21:00:25.967Z,101079.13
2023-12-20T21:06:13.382Z,101063.75
2023-12-20T21:12:01.409Z,101049.72
2023-12-20T21:17:49.369Z,101043.34
2023-12-20T21:23:37.686Z,101032.53
2023-12-20T21:29:25.005Z,101036.47
2023-12-20T21:35:13.722Z,101016.63
2023-12-20T21:41:03.465Z,101009.69
2023-12-20T21:46:50.344Z,101002.78
2023-12-20T21:52:37.201Z,100992.47
2023-12-20T21:58:24.415Z,100977.41
2023-12-20T22:04:11.599Z,100953.81
2023-12-20T22:10:04.294Z,100963.00
2023-12-20T22:15:52.598Z,100957.69
2023-12-20T22:21:42.114Z,100952.28
2023-12-20T22:27:48.433Z,100950.00
2023-12-20T22:42:04.151Z,100937.44
2023-12-20T22:47:57.610Z,100934.84
2023-12-20T23:00:56.686Z,100916.19
2023-12-20T23:07:01.927Z,100899.13
2023-12-20T23:13:04.070Z,100929.69
2023-12-20T23:18:53.476Z,100888.28
2023-12-20T23:24:40.570Z,100901.88
2023-12-20T23:30:28.305Z,100913.03
2023-12-20T23:36:15.084Z,100920.03
2023-12-20T23:42:01.889Z,100917.81
2023-12-20T23:47:49.301Z,100897.13
2023-12-20T23:53:42.409Z,100875.84
2023-12-20T23:59:32.411Z,100875.94
